sensor_id;sensor_type;location;lat;lon;timestamp;P1;durP1;ratioP1;P2;durP2;ratioP2
29688;SDS011;16600;47.444;8.334;2023-03-01T00:01:06;32.97;;;25.10;;
29688;SDS011;16600;47.444;8.334;2023-03-01T00:03:33;31.08;;;25.23;;
29688;SDS011;16600;47.444;8.334;2023-03-01T00:05:59;25.40;;;22.67;;
29688;SDS011;16600;47.444;8.334;2023-03-01T00:08:26;30.45;;;23.85;;
29688;SDS011;16600;47.444;8.334;2023-03-01T00:13:39;27.70;;;23.58;;
29688;SDS011;16600;47.444;8.334;2023-03-01T00:16:08;28.65;;;23.58;;
29688;SDS011;16600;47.444;8.334;2023-03-01T00:18:35;33.72;;;23.25;;
29688;SDS011;16600;47.444;8.334;2023-03-01T00:21:01;29.60;;;24.25;;
29688;SDS011;16600;47.444;8.334;2023-03-01T00:23:28;27.60;;;24.38;;
29688;SDS011;16600;47.444;8.334;2023-03-01T00:25:54;27.33;;;23.10;;
29688;SDS011;16600;47.444;8.334;2023-03-01T00:28:20;32.08;;;24.08;;
29688;SDS011;16600;47.444;8.334;2023-03-01T00:30:46;29.70;;;23.77;;
29688;SDS011;16600;47.444;8.334;2023-03-01T00:33:13;33.22;;;24.20;;
29688;SDS011;16600;47.444;8.334;2023-03-01T00:35:39;33.13;;;24.70;;
29688;SDS011;16600;47.444;8.334;2023-03-01T00:38:09;37.65;;;25.75;;
29688;SDS011;16600;47.444;8.334;2023-03-01T00:40:35;30.90;;;24.58;;
29688;SDS011;16600;47.444;8.334;2023-03-01T00:43:02;42.22;;;25.40;;
29688;SDS011;16600;47.444;8.334;2023-03-01T00:45:29;32.35;;;25.02;;
29688;SDS011;16600;47.444;8.334;2023-03-01T00:47:58;28.73;;;23.25;;
29688;SDS011;16600;47.444;8.334;2023-03-01T00:50:27;32.67;;;24.98;;
29688;SDS011;16600;47.444;8.334;2023-03-01T00:53:00;28.33;;;25.25;;
29688;SDS011;16600;47.444;8.334;2023-03-01T00:55:29;27.08;;;23.10;;
29688;SDS011;16600;47.444;8.334;2023-03-01T00:57:59;32.42;;;24.17;;
29688;SDS011;16600;47.444;8.334;2023-03-01T01:02:53;33.72;;;23.45;;
29688;SDS011;16600;47.444;8.334;2023-03-01T01:05:20;30.08;;;23.35;;
29688;SDS011;16600;47.444;8.334;2023-03-01T01:07:46;28.00;;;23.20;;
29688;SDS011;16600;47.444;8.334;2023-03-01T01:10:12;39.80;;;25.63;;
29688;SDS011;16600;47.444;8.334;2023-03-01T01:12:43;29.33;;;24.35;;
29688;SDS011;16600;47.444;8.334;2023-03-01T01:15:09;33.28;;;25.17;;
29688;SDS011;16600;47.444;8.334;2023-03-01T01:17:38;29.90;;;23.83;;
29688;SDS011;16600;47.444;8.334;2023-03-01T01:22:29;31.92;;;24.42;;
29688;SDS011;16600;47.444;8.334;2023-03-01T01:27:21;28.63;;;23.25;;
29688;SDS011;16600;47.444;8.334;2023-03-01T01:29:52;31.08;;;23.88;;
29688;SDS011;16600;47.444;8.334;2023-03-01T01:32:18;29.52;;;23.98;;
29688;SDS011;16600;47.444;8.334;2023-03-01T01:37:09;34.75;;;23.23;;
29688;SDS011;16600;47.444;8.334;2023-03-01T01:39:39;31.90;;;23.65;;
29688;SDS011;16600;47.444;8.334;2023-03-01T01:44:30;31.75;;;23.50;;
29688;SDS011;16600;47.444;8.334;2023-03-01T01:54:17;26.83;;;23.30;;
29688;SDS011;16600;47.444;8.334;2023-03-01T01:56:44;27.92;;;25.02;;
29688;SDS011;16600;47.444;8.334;2023-03-01T01:59:11;41.45;;;25.98;;
29688;SDS011;16600;47.444;8.334;2023-03-01T02:04:03;31.67;;;24.77;;
29688;SDS011;16600;47.444;8.334;2023-03-01T02:06:31;31.08;;;24.17;;
29688;SDS011;16600;47.444;8.334;2023-03-01T02:09:04;29.70;;;23.98;;
29688;SDS011;16600;47.444;8.334;2023-03-01T02:11:31;31.08;;;24.52;;
29688;SDS011;16600;47.444;8.334;2023-03-01T02:13:57;36.30;;;22.15;;
29688;SDS011;16600;47.444;8.334;2023-03-01T02:18:48;29.98;;;24.17;;
29688;SDS011;16600;47.444;8.334;2023-03-01T02:24:02;31.80;;;25.70;;
29688;SDS011;16600;47.444;8.334;2023-03-01T02:26:41;27.17;;;24.25;;
29688;SDS011;16600;47.444;8.334;2023-03-01T02:29:07;28.13;;;25.08;;
29688;SDS011;16600;47.444;8.334;2023-03-01T02:34:08;41.08;;;25.33;;
29688;SDS011;16600;47.444;8.334;2023-03-01T02:36:35;25.63;;;22.80;;
29688;SDS011;16600;47.444;8.334;2023-03-01T02:39:03;30.95;;;25.35;;
29688;SDS011;16600;47.444;8.334;2023-03-01T02:41:30;33.15;;;25.20;;
29688;SDS011;16600;47.444;8.334;2023-03-01T02:43:58;30.65;;;25.45;;
29688;SDS011;16600;47.444;8.334;2023-03-01T02:46:24;35.67;;;27.33;;
29688;SDS011;16600;47.444;8.334;2023-03-01T02:48:56;29.33;;;25.73;;
29688;SDS011;16600;47.444;8.334;2023-03-01T02:51:40;31.02;;;24.98;;
29688;SDS011;16600;47.444;8.334;2023-03-01T02:54:21;37.25;;;26.73;;
29688;SDS011;16600;47.444;8.334;2023-03-01T02:56:49;31.23;;;25.55;;
29688;SDS011;16600;47.444;8.334;2023-03-01T02:59:18;40.08;;;27.02;;
29688;SDS011;16600;47.444;8.334;2023-03-01T03:01:45;31.27;;;25.63;;
29688;SDS011;16600;47.444;8.334;2023-03-01T03:04:14;34.00;;;28.33;;
29688;SDS011;16600;47.444;8.334;2023-03-01T03:06:44;34.30;;;27.85;;
29688;SDS011;16600;47.444;8.334;2023-03-01T03:09:11;35.28;;;28.17;;
29688;SDS011;16600;47.444;8.334;2023-03-01T03:11:37;31.35;;;27.42;;
29688;SDS011;16600;47.444;8.334;2023-03-01T03:14:07;46.90;;;28.30;;
29688;SDS011;16600;47.444;8.334;2023-03-01T03:16:42;37.30;;;28.00;;
29688;SDS011;16600;47.444;8.334;2023-03-01T03:19:09;36.10;;;29.67;;
29688;SDS011;16600;47.444;8.334;2023-03-01T03:21:38;35.72;;;27.88;;
29688;SDS011;16600;47.444;8.334;2023-03-01T03:24:08;36.97;;;27.48;;
29688;SDS011;16600;47.444;8.334;2023-03-01T03:28:59;42.35;;;27.70;;
29688;SDS011;16600;47.444;8.334;2023-03-01T03:31:25;32.92;;;27.17;;
29688;SDS011;16600;47.444;8.334;2023-03-01T03:33:51;36.55;;;28.20;;
29688;SDS011;16600;47.444;8.334;2023-03-01T03:38:44;31.50;;;27.48;;
29688;SDS011;16600;47.444;8.334;2023-03-01T03:41:11;43.42;;;29.88;;
29688;SDS011;16600;47.444;8.334;2023-03-01T03:46:03;42.60;;;29.88;;
29688;SDS011;16600;47.444;8.334;2023-03-01T03:48:32;34.05;;;28.27;;
29688;SDS011;16600;47.444;8.334;2023-03-01T03:50:58;37.15;;;29.45;;
29688;SDS011;16600;47.444;8.334;2023-03-01T03:55:52;36.47;;;29.42;;
29688;SDS011;16600;47.444;8.334;2023-03-01T03:58:22;35.85;;;29.15;;
29688;SDS011;16600;47.444;8.334;2023-03-01T04:00:49;37.08;;;29.58;;
29688;SDS011;16600;47.444;8.334;2023-03-01T04:03:16;37.58;;;31.17;;
29688;SDS011;16600;47.444;8.334;2023-03-01T04:05:44;35.65;;;29.85;;
29688;SDS011;16600;47.444;8.334;2023-03-01T04:10:40;35.28;;;30.13;;
29688;SDS011;16600;47.444;8.334;2023-03-01T04:13:06;40.05;;;30.33;;
29688;SDS011;16600;47.444;8.334;2023-03-01T04:15:32;34.15;;;28.73;;
29688;SDS011;16600;47.444;8.334;2023-03-01T04:20:25;37.10;;;28.58;;
29688;SDS011;16600;47.444;8.334;2023-03-01T04:22:52;36.58;;;30.20;;
29688;SDS011;16600;47.444;8.334;2023-03-01T04:25:18;35.63;;;31.35;;
29688;SDS011;16600;47.444;8.334;2023-03-01T04:27:44;34.35;;;29.10;;
29688;SDS011;16600;47.444;8.334;2023-03-01T04:32:35;36.22;;;28.02;;
29688;SDS011;16600;47.444;8.334;2023-03-01T04:37:26;32.45;;;28.35;;
29688;SDS011;16600;47.444;8.334;2023-03-01T04:39:52;38.28;;;30.02;;
29688;SDS011;16600;47.444;8.334;2023-03-01T04:42:19;42.40;;;29.52;;
29688;SDS011;16600;47.444;8.334;2023-03-01T04:47:10;36.88;;;29.13;;
29688;SDS011;16600;47.444;8.334;2023-03-01T04:49:36;37.17;;;29.23;;
29688;SDS011;16600;47.444;8.334;2023-03-01T04:52:03;43.80;;;30.60;;
29688;SDS011;16600;47.444;8.334;2023-03-01T04:56:54;36.67;;;29.23;;
29688;SDS011;16600;47.444;8.334;2023-03-01T05:03:38;35.97;;;29.27;;
29688;SDS011;16600;47.444;8.334;2023-03-01T05:08:29;37.28;;;30.30;;
29688;SDS011;16600;47.444;8.334;2023-03-01T05:13:20;44.70;;;28.27;;
29688;SDS011;16600;47.444;8.334;2023-03-01T05:15:49;39.72;;;29.63;;
29688;SDS011;16600;47.444;8.334;2023-03-01T05:18:18;39.53;;;31.67;;
29688;SDS011;16600;47.444;8.334;2023-03-01T05:23:10;38.20;;;29.10;;
29688;SDS011;16600;47.444;8.334;2023-03-01T05:25:36;45.30;;;29.77;;
29688;SDS011;16600;47.444;8.334;2023-03-01T05:28:06;36.28;;;29.45;;
29688;SDS011;16600;47.444;8.334;2023-03-01T05:30:33;33.95;;;28.95;;
29688;SDS011;16600;47.444;8.334;2023-03-01T05:32:59;36.70;;;28.35;;
29688;SDS011;16600;47.444;8.334;2023-03-01T05:35:25;41.60;;;28.05;;
29688;SDS011;16600;47.444;8.334;2023-03-01T05:37:54;37.47;;;29.67;;
29688;SDS011;16600;47.444;8.334;2023-03-01T05:40:21;46.67;;;29.80;;
29688;SDS011;16600;47.444;8.334;2023-03-01T05:42:48;35.92;;;28.70;;
29688;SDS011;16600;47.444;8.334;2023-03-01T05:45:14;38.25;;;29.48;;
29688;SDS011;16600;47.444;8.334;2023-03-01T05:47:41;35.22;;;29.02;;
29688;SDS011;16600;47.444;8.334;2023-03-01T05:50:12;39.42;;;29.73;;
29688;SDS011;16600;47.444;8.334;2023-03-01T05:52:38;35.55;;;29.33;;
29688;SDS011;16600;47.444;8.334;2023-03-01T05:55:04;35.92;;;29.70;;
29688;SDS011;16600;47.444;8.334;2023-03-01T05:57:31;33.28;;;29.67;;
29688;SDS011;16600;47.444;8.334;2023-03-01T06:02:22;38.22;;;28.70;;
29688;SDS011;16600;47.444;8.334;2023-03-01T06:07:16;32.28;;;26.88;;
29688;SDS011;16600;47.444;8.334;2023-03-01T06:09:42;61.35;;;30.80;;
29688;SDS011;16600;47.444;8.334;2023-03-01T06:14:33;38.55;;;29.98;;
29688;SDS011;16600;47.444;8.334;2023-03-01T06:19:24;37.08;;;28.85;;
29688;SDS011;16600;47.444;8.334;2023-03-01T06:24:15;39.08;;;29.95;;
29688;SDS011;16600;47.444;8.334;2023-03-01T06:26:41;42.97;;;31.38;;
29688;SDS011;16600;47.444;8.334;2023-03-01T06:29:07;38.75;;;28.90;;
29688;SDS011;16600;47.444;8.334;2023-03-01T06:31:34;41.78;;;30.17;;
29688;SDS011;16600;47.444;8.334;2023-03-01T06:34:02;40.60;;;31.13;;
29688;SDS011;16600;47.444;8.334;2023-03-01T06:38:53;45.67;;;31.85;;
29688;SDS011;16600;47.444;8.334;2023-03-01T06:43:44;42.95;;;32.10;;
29688;SDS011;16600;47.444;8.334;2023-03-01T06:48:35;38.13;;;30.67;;
29688;SDS011;16600;47.444;8.334;2023-03-01T06:53:27;41.35;;;31.60;;
29688;SDS011;16600;47.444;8.334;2023-03-01T06:55:53;39.97;;;30.30;;
29688;SDS011;16600;47.444;8.334;2023-03-01T06:58:19;44.10;;;30.70;;
29688;SDS011;16600;47.444;8.334;2023-03-01T07:00:45;42.38;;;30.25;;
29688;SDS011;16600;47.444;8.334;2023-03-01T07:05:36;38.53;;;30.02;;
29688;SDS011;16600;47.444;8.334;2023-03-01T07:10:27;38.92;;;31.83;;
29688;SDS011;16600;47.444;8.334;2023-03-01T07:15:18;38.45;;;30.52;;
29688;SDS011;16600;47.444;8.334;2023-03-01T07:20:10;46.92;;;31.55;;
29688;SDS011;16600;47.444;8.334;2023-03-01T07:22:40;37.58;;;30.90;;
29688;SDS011;16600;47.444;8.334;2023-03-01T07:25:07;44.67;;;30.10;;
29688;SDS011;16600;47.444;8.334;2023-03-01T07:27:36;35.60;;;29.90;;
29688;SDS011;16600;47.444;8.334;2023-03-01T07:30:03;49.67;;;33.00;;
29688;SDS011;16600;47.444;8.334;2023-03-01T07:32:29;47.83;;;31.55;;
29688;SDS011;16600;47.444;8.334;2023-03-01T07:37:20;45.60;;;32.53;;
29688;SDS011;16600;47.444;8.334;2023-03-01T07:42:11;54.53;;;30.77;;
29688;SDS011;16600;47.444;8.334;2023-03-01T07:47:03;46.05;;;30.95;;
29688;SDS011;16600;47.444;8.334;2023-03-01T07:49:32;40.22;;;30.83;;
29688;SDS011;16600;47.444;8.334;2023-03-01T07:54:23;41.10;;;31.13;;
29688;SDS011;16600;47.444;8.334;2023-03-01T07:56:49;40.72;;;30.75;;
29688;SDS011;16600;47.444;8.334;2023-03-01T07:59:16;42.20;;;29.75;;
29688;SDS011;16600;47.444;8.334;2023-03-01T08:01:42;39.50;;;29.00;;
29688;SDS011;16600;47.444;8.334;2023-03-01T08:04:08;38.72;;;29.40;;
29688;SDS011;16600;47.444;8.334;2023-03-01T08:08:59;36.35;;;29.60;;
29688;SDS011;16600;47.444;8.334;2023-03-01T08:11:28;48.60;;;30.52;;
29688;SDS011;16600;47.444;8.334;2023-03-01T08:13:55;38.40;;;29.40;;
29688;SDS011;16600;47.444;8.334;2023-03-01T08:18:45;40.10;;;31.20;;
29688;SDS011;16600;47.444;8.334;2023-03-01T08:23:36;37.72;;;30.05;;
29688;SDS011;16600;47.444;8.334;2023-03-01T08:28:28;33.22;;;28.35;;
29688;SDS011;16600;47.444;8.334;2023-03-01T08:33:20;43.25;;;30.48;;
29688;SDS011;16600;47.444;8.334;2023-03-01T08:35:46;41.17;;;29.92;;
29688;SDS011;16600;47.444;8.334;2023-03-01T08:38:12;38.55;;;31.35;;
29688;SDS011;16600;47.444;8.334;2023-03-01T08:40:38;41.15;;;31.20;;
29688;SDS011;16600;47.444;8.334;2023-03-01T08:45:30;36.13;;;29.35;;
29688;SDS011;16600;47.444;8.334;2023-03-01T08:47:56;39.15;;;31.20;;
29688;SDS011;16600;47.444;8.334;2023-03-01T08:50:23;42.10;;;31.08;;
29688;SDS011;16600;47.444;8.334;2023-03-01T08:52:52;48.35;;;32.90;;
29688;SDS011;16600;47.444;8.334;2023-03-01T08:55:19;45.30;;;31.40;;
29688;SDS011;16600;47.444;8.334;2023-03-01T08:57:45;46.15;;;30.17;;
29688;SDS011;16600;47.444;8.334;2023-03-01T09:00:11;38.67;;;32.30;;
29688;SDS011;16600;47.444;8.334;2023-03-01T09:02:40;37.83;;;30.27;;
29688;SDS011;16600;47.444;8.334;2023-03-01T09:05:10;44.95;;;31.08;;
29688;SDS011;16600;47.444;8.334;2023-03-01T09:07:36;38.53;;;30.52;;
29688;SDS011;16600;47.444;8.334;2023-03-01T09:10:02;37.97;;;30.77;;
29688;SDS011;16600;47.444;8.334;2023-03-01T09:12:31;40.33;;;31.50;;
29688;SDS011;16600;47.444;8.334;2023-03-01T09:17:22;37.50;;;30.90;;
29688;SDS011;16600;47.444;8.334;2023-03-01T09:22:14;44.63;;;29.35;;
29688;SDS011;16600;47.444;8.334;2023-03-01T09:24:40;37.78;;;30.20;;
29688;SDS011;16600;47.444;8.334;2023-03-01T09:27:09;40.03;;;30.15;;
29688;SDS011;16600;47.444;8.334;2023-03-01T09:29:36;42.22;;;31.52;;
29688;SDS011;16600;47.444;8.334;2023-03-01T09:32:02;46.42;;;31.58;;
29688;SDS011;16600;47.444;8.334;2023-03-01T09:36:53;46.63;;;29.92;;
29688;SDS011;16600;47.444;8.334;2023-03-01T09:41:47;41.97;;;29.52;;
29688;SDS011;16600;47.444;8.334;2023-03-01T09:44:26;41.38;;;30.30;;
29688;SDS011;16600;47.444;8.334;2023-03-01T09:46:53;35.55;;;28.63;;
29688;SDS011;16600;47.444;8.334;2023-03-01T09:52:07;39.92;;;29.70;;
29688;SDS011;16600;47.444;8.334;2023-03-01T09:54:31;41.13;;;29.47;;
29688;SDS011;16600;47.444;8.334;2023-03-01T09:59:33;34.78;;;28.88;;
29688;SDS011;16600;47.444;8.334;2023-03-01T10:04:49;42.08;;;28.83;;
29688;SDS011;16600;47.444;8.334;2023-03-01T10:09:59;43.17;;;31.80;;
29688;SDS011;16600;47.444;8.334;2023-03-01T10:12:27;44.00;;;29.52;;
29688;SDS011;16600;47.444;8.334;2023-03-01T10:22:30;48.10;;;30.08;;
29688;SDS011;16600;47.444;8.334;2023-03-01T10:24:57;40.97;;;29.88;;
29688;SDS011;16600;47.444;8.334;2023-03-01T10:27:25;39.42;;;28.50;;
29688;SDS011;16600;47.444;8.334;2023-03-01T10:29:57;38.00;;;28.77;;
29688;SDS011;16600;47.444;8.334;2023-03-01T10:32:27;42.88;;;29.83;;
29688;SDS011;16600;47.444;8.334;2023-03-01T10:34:54;39.13;;;30.27;;
29688;SDS011;16600;47.444;8.334;2023-03-01T10:37:22;37.30;;;29.33;;
29688;SDS011;16600;47.444;8.334;2023-03-01T10:39:57;35.50;;;28.40;;
29688;SDS011;16600;47.444;8.334;2023-03-01T10:42:30;42.10;;;30.77;;
29688;SDS011;16600;47.444;8.334;2023-03-01T10:44:57;37.38;;;29.35;;
29688;SDS011;16600;47.444;8.334;2023-03-01T10:47:24;43.38;;;29.25;;
29688;SDS011;16600;47.444;8.334;2023-03-01T10:49:57;34.65;;;27.92;;
29688;SDS011;16600;47.444;8.334;2023-03-01T10:52:28;35.90;;;27.30;;
29688;SDS011;16600;47.444;8.334;2023-03-01T10:54:58;46.20;;;30.35;;
29688;SDS011;16600;47.444;8.334;2023-03-01T10:57:27;40.22;;;28.30;;
29688;SDS011;16600;47.444;8.334;2023-03-01T11:03:03;46.27;;;28.47;;
29688;SDS011;16600;47.444;8.334;2023-03-01T11:05:35;36.25;;;28.98;;
29688;SDS011;16600;47.444;8.334;2023-03-01T11:08:01;38.83;;;27.50;;
29688;SDS011;16600;47.444;8.334;2023-03-01T11:10:34;39.78;;;29.80;;
29688;SDS011;16600;47.444;8.334;2023-03-01T11:13:08;35.03;;;27.33;;
29688;SDS011;16600;47.444;8.334;2023-03-01T11:15:35;36.63;;;28.73;;
29688;SDS011;16600;47.444;8.334;2023-03-01T11:18:01;34.85;;;27.02;;
29688;SDS011;16600;47.444;8.334;2023-03-01T11:20:32;37.88;;;27.27;;
29688;SDS011;16600;47.444;8.334;2023-03-01T11:23:06;37.60;;;29.20;;
29688;SDS011;16600;47.444;8.334;2023-03-01T11:25:42;37.58;;;27.95;;
29688;SDS011;16600;47.444;8.334;2023-03-01T11:28:15;39.10;;;29.17;;
29688;SDS011;16600;47.444;8.334;2023-03-01T11:31:02;41.58;;;29.65;;
29688;SDS011;16600;47.444;8.334;2023-03-01T11:33:38;40.88;;;28.45;;
29688;SDS011;16600;47.444;8.334;2023-03-01T11:40:58;44.17;;;28.67;;
29688;SDS011;16600;47.444;8.334;2023-03-01T11:43:47;35.63;;;26.67;;
29688;SDS011;16600;47.444;8.334;2023-03-01T12:01:47;40.53;;;28.50;;
29688;SDS011;16600;47.444;8.334;2023-03-01T12:06:47;37.40;;;28.60;;
29688;SDS011;16600;47.444;8.334;2023-03-01T12:09:25;36.38;;;29.42;;
29688;SDS011;16600;47.444;8.334;2023-03-01T12:15:02;44.03;;;29.20;;
29688;SDS011;16600;47.444;8.334;2023-03-01T12:17:37;35.70;;;27.70;;
29688;SDS011;16600;47.444;8.334;2023-03-01T12:20:18;38.42;;;27.90;;
29688;SDS011;16600;47.444;8.334;2023-03-01T12:23:12;32.90;;;28.38;;
29688;SDS011;16600;47.444;8.334;2023-03-01T12:25:52;34.53;;;29.13;;
29688;SDS011;16600;47.444;8.334;2023-03-01T12:36:44;40.25;;;28.50;;
29688;SDS011;16600;47.444;8.334;2023-03-01T12:39:32;42.72;;;28.90;;
29688;SDS011;16600;47.444;8.334;2023-03-01T12:47:05;37.83;;;28.48;;
29688;SDS011;16600;47.444;8.334;2023-03-01T12:49:46;39.90;;;28.40;;
29688;SDS011;16600;47.444;8.334;2023-03-01T12:52:27;37.15;;;28.95;;
29688;SDS011;16600;47.444;8.334;2023-03-01T12:54:55;39.20;;;29.88;;
29688;SDS011;16600;47.444;8.334;2023-03-01T13:02:23;36.58;;;28.45;;
29688;SDS011;16600;47.444;8.334;2023-03-01T13:04:59;40.25;;;28.70;;
29688;SDS011;16600;47.444;8.334;2023-03-01T13:12:49;37.88;;;28.77;;
29688;SDS011;16600;47.444;8.334;2023-03-01T13:17:54;41.47;;;29.55;;
29688;SDS011;16600;47.444;8.334;2023-03-01T13:20:26;35.20;;;28.23;;
29688;SDS011;16600;47.444;8.334;2023-03-01T13:23:02;39.70;;;28.05;;
29688;SDS011;16600;47.444;8.334;2023-03-01T13:25:29;33.85;;;27.08;;
29688;SDS011;16600;47.444;8.334;2023-03-01T13:30:44;34.72;;;28.23;;
29688;SDS011;16600;47.444;8.334;2023-03-01T13:35:52;34.83;;;28.85;;
29688;SDS011;16600;47.444;8.334;2023-03-01T13:41:03;34.00;;;28.85;;
29688;SDS011;16600;47.444;8.334;2023-03-01T13:43:35;34.65;;;28.38;;
29688;SDS011;16600;47.444;8.334;2023-03-01T13:46:07;43.00;;;29.05;;
29688;SDS011;16600;47.444;8.334;2023-03-01T13:48:37;37.42;;;27.27;;
29688;SDS011;16600;47.444;8.334;2023-03-01T13:51:08;40.17;;;29.10;;
29688;SDS011;16600;47.444;8.334;2023-03-01T13:53:35;33.28;;;26.90;;
29688;SDS011;16600;47.444;8.334;2023-03-01T13:56:13;35.22;;;27.13;;
29688;SDS011;16600;47.444;8.334;2023-03-01T13:58:46;33.50;;;27.17;;
29688;SDS011;16600;47.444;8.334;2023-03-01T14:01:20;40.95;;;27.70;;
29688;SDS011;16600;47.444;8.334;2023-03-01T14:03:46;41.72;;;28.10;;
29688;SDS011;16600;47.444;8.334;2023-03-01T14:06:16;40.88;;;27.65;;
29688;SDS011;16600;47.444;8.334;2023-03-01T14:08:45;37.90;;;28.38;;
29688;SDS011;16600;47.444;8.334;2023-03-01T14:11:25;32.95;;;27.08;;
29688;SDS011;16600;47.444;8.334;2023-03-01T14:14:17;36.03;;;28.20;;
29688;SDS011;16600;47.444;8.334;2023-03-01T14:19:26;39.55;;;28.58;;
29688;SDS011;16600;47.444;8.334;2023-03-01T14:22:17;33.20;;;27.17;;
29688;SDS011;16600;47.444;8.334;2023-03-01T14:24:40;40.03;;;28.25;;
29688;SDS011;16600;47.444;8.334;2023-03-01T14:27:11;38.13;;;28.35;;
29688;SDS011;16600;47.444;8.334;2023-03-01T14:29:40;35.90;;;26.98;;
29688;SDS011;16600;47.444;8.334;2023-03-01T14:32:21;47.65;;;28.30;;
29688;SDS011;16600;47.444;8.334;2023-03-01T14:34:48;33.90;;;26.85;;
29688;SDS011;16600;47.444;8.334;2023-03-01T14:37:22;40.03;;;27.92;;
29688;SDS011;16600;47.444;8.334;2023-03-01T14:39:51;36.55;;;27.48;;
29688;SDS011;16600;47.444;8.334;2023-03-01T14:42:21;43.22;;;28.25;;
29688;SDS011;16600;47.444;8.334;2023-03-01T14:44:52;41.85;;;28.10;;
29688;SDS011;16600;47.444;8.334;2023-03-01T14:47:29;35.90;;;27.38;;
29688;SDS011;16600;47.444;8.334;2023-03-01T14:50:07;34.28;;;27.05;;
29688;SDS011;16600;47.444;8.334;2023-03-01T14:52:40;34.85;;;27.17;;
29688;SDS011;16600;47.444;8.334;2023-03-01T14:55:20;41.03;;;28.98;;
29688;SDS011;16600;47.444;8.334;2023-03-01T14:57:48;35.63;;;28.80;;
29688;SDS011;16600;47.444;8.334;2023-03-01T15:00:18;44.78;;;28.23;;
29688;SDS011;16600;47.444;8.334;2023-03-01T15:02:45;30.75;;;26.05;;
29688;SDS011;16600;47.444;8.334;2023-03-01T15:05:13;37.70;;;27.10;;
29688;SDS011;16600;47.444;8.334;2023-03-01T15:07:40;38.25;;;27.63;;
29688;SDS011;16600;47.444;8.334;2023-03-01T15:10:17;40.30;;;27.55;;
29688;SDS011;16600;47.444;8.334;2023-03-01T15:12:48;34.85;;;27.08;;
29688;SDS011;16600;47.444;8.334;2023-03-01T15:17:56;33.30;;;27.25;;
29688;SDS011;16600;47.444;8.334;2023-03-01T15:20:24;33.08;;;25.50;;
29688;SDS011;16600;47.444;8.334;2023-03-01T15:22:55;33.65;;;27.40;;
29688;SDS011;16600;47.444;8.334;2023-03-01T15:25:25;36.30;;;26.42;;
29688;SDS011;16600;47.444;8.334;2023-03-01T15:27:55;34.78;;;28.08;;
29688;SDS011;16600;47.444;8.334;2023-03-01T15:30:26;35.20;;;26.42;;
29688;SDS011;16600;47.444;8.334;2023-03-01T15:35:49;32.92;;;25.30;;
29688;SDS011;16600;47.444;8.334;2023-03-01T15:38:35;34.13;;;25.67;;
29688;SDS011;16600;47.444;8.334;2023-03-01T15:43:52;35.72;;;27.38;;
29688;SDS011;16600;47.444;8.334;2023-03-01T15:46:28;31.55;;;25.33;;
29688;SDS011;16600;47.444;8.334;2023-03-01T15:51:27;34.55;;;25.15;;
29688;SDS011;16600;47.444;8.334;2023-03-01T15:53:55;31.65;;;25.52;;
29688;SDS011;16600;47.444;8.334;2023-03-01T15:56:23;33.75;;;27.48;;
29688;SDS011;16600;47.444;8.334;2023-03-01T15:58:49;34.70;;;26.73;;
29688;SDS011;16600;47.444;8.334;2023-03-01T16:01:15;33.72;;;26.10;;
29688;SDS011;16600;47.444;8.334;2023-03-01T16:03:42;35.85;;;27.13;;
29688;SDS011;16600;47.444;8.334;2023-03-01T16:06:09;36.67;;;26.63;;
29688;SDS011;16600;47.444;8.334;2023-03-01T16:08:37;32.83;;;27.27;;
29688;SDS011;16600;47.444;8.334;2023-03-01T16:11:09;38.03;;;27.58;;
29688;SDS011;16600;47.444;8.334;2023-03-01T16:13:40;42.60;;;26.38;;
29688;SDS011;16600;47.444;8.334;2023-03-01T16:16:10;34.53;;;26.35;;
29688;SDS011;16600;47.444;8.334;2023-03-01T16:18:39;41.42;;;27.08;;
29688;SDS011;16600;47.444;8.334;2023-03-01T16:21:05;34.65;;;26.35;;
29688;SDS011;16600;47.444;8.334;2023-03-01T16:23:31;40.42;;;26.60;;
29688;SDS011;16600;47.444;8.334;2023-03-01T16:25:58;31.05;;;25.58;;
29688;SDS011;16600;47.444;8.334;2023-03-01T16:28:24;34.40;;;27.63;;
29688;SDS011;16600;47.444;8.334;2023-03-01T16:30:50;36.90;;;28.25;;
29688;SDS011;16600;47.444;8.334;2023-03-01T16:33:16;34.10;;;26.17;;
29688;SDS011;16600;47.444;8.334;2023-03-01T16:35:42;33.42;;;26.45;;
29688;SDS011;16600;47.444;8.334;2023-03-01T16:38:09;34.30;;;27.55;;
29688;SDS011;16600;47.444;8.334;2023-03-01T16:40:35;39.50;;;27.08;;
29688;SDS011;16600;47.444;8.334;2023-03-01T16:45:34;34.58;;;27.40;;
29688;SDS011;16600;47.444;8.334;2023-03-01T16:48:05;34.58;;;25.75;;
29688;SDS011;16600;47.444;8.334;2023-03-01T16:50:32;35.83;;;27.17;;
29688;SDS011;16600;47.444;8.334;2023-03-01T16:53:02;33.88;;;28.27;;
29688;SDS011;16600;47.444;8.334;2023-03-01T16:57:53;36.72;;;27.95;;
29688;SDS011;16600;47.444;8.334;2023-03-01T17:03:03;33.17;;;26.73;;
29688;SDS011;16600;47.444;8.334;2023-03-01T17:05:29;32.78;;;27.17;;
29688;SDS011;16600;47.444;8.334;2023-03-01T17:07:55;35.00;;;26.30;;
29688;SDS011;16600;47.444;8.334;2023-03-01T17:10:23;38.42;;;27.90;;
29688;SDS011;16600;47.444;8.334;2023-03-01T17:12:49;39.35;;;28.70;;
29688;SDS011;16600;47.444;8.334;2023-03-01T17:15:15;34.67;;;27.42;;
29688;SDS011;16600;47.444;8.334;2023-03-01T17:20:08;41.72;;;28.88;;
29688;SDS011;16600;47.444;8.334;2023-03-01T17:22:35;40.75;;;29.42;;
29688;SDS011;16600;47.444;8.334;2023-03-01T17:25:01;38.35;;;28.25;;
29688;SDS011;16600;47.444;8.334;2023-03-01T17:27:27;33.17;;;27.70;;
29688;SDS011;16600;47.444;8.334;2023-03-01T17:30:00;45.15;;;29.15;;
29688;SDS011;16600;47.444;8.334;2023-03-01T17:32:26;39.78;;;29.70;;
29688;SDS011;16600;47.444;8.334;2023-03-01T17:34:52;33.88;;;27.88;;
29688;SDS011;16600;47.444;8.334;2023-03-01T17:39:44;37.70;;;27.42;;
29688;SDS011;16600;47.444;8.334;2023-03-01T17:42:10;34.63;;;28.15;;
29688;SDS011;16600;47.444;8.334;2023-03-01T17:47:02;37.58;;;26.02;;
29688;SDS011;16600;47.444;8.334;2023-03-01T17:49:29;42.38;;;29.25;;
29688;SDS011;16600;47.444;8.334;2023-03-01T17:51:55;39.10;;;28.67;;
29688;SDS011;16600;47.444;8.334;2023-03-01T17:56:46;39.85;;;28.83;;
29688;SDS011;16600;47.444;8.334;2023-03-01T17:59:12;36.35;;;28.70;;
29688;SDS011;16600;47.444;8.334;2023-03-01T18:04:07;34.45;;;27.30;;
29688;SDS011;16600;47.444;8.334;2023-03-01T18:06:34;40.30;;;28.90;;
29688;SDS011;16600;47.444;8.334;2023-03-01T18:09:00;38.30;;;28.35;;
29688;SDS011;16600;47.444;8.334;2023-03-01T18:13:52;47.22;;;29.05;;
29688;SDS011;16600;47.444;8.334;2023-03-01T18:16:18;34.20;;;28.33;;
29688;SDS011;16600;47.444;8.334;2023-03-01T18:18:44;37.55;;;28.40;;
29688;SDS011;16600;47.444;8.334;2023-03-01T18:21:11;39.20;;;29.52;;
29688;SDS011;16600;47.444;8.334;2023-03-01T18:23:40;37.58;;;27.95;;
29688;SDS011;16600;47.444;8.334;2023-03-01T18:26:08;34.28;;;28.42;;
29688;SDS011;16600;47.444;8.334;2023-03-01T18:28:34;39.97;;;28.08;;
29688;SDS011;16600;47.444;8.334;2023-03-01T18:33:25;38.60;;;27.80;;
29688;SDS011;16600;47.444;8.334;2023-03-01T18:35:52;46.22;;;29.23;;
29688;SDS011;16600;47.444;8.334;2023-03-01T18:38:18;41.47;;;29.10;;
29688;SDS011;16600;47.444;8.334;2023-03-01T18:40:45;37.95;;;29.58;;
29688;SDS011;16600;47.444;8.334;2023-03-01T18:43:11;44.88;;;29.58;;